If you wish to contribute or participate in the discussions about articles you are invited to join SKYbrary as a registered user

 Actions

Tokushima Airport

From SKYbrary Wiki

RJOS
Airport
ICAO: RJOS – IATA: TKS
Summary
Name Tokushima Airport
Region Asia and Pacific
Territory Japan JP.gif
Location Matsushige, Tokushima Prefecture
Serving Tokushima
Elevation 11.278 m
37 ft11.278 m
Coordinates 34° 8' 3.81" N, 134° 37' 5.41" E
Runways
Designator Length Width Surface ROPS
11/29 1999 m6,558.399 ft
46 m150.919 ft
ASP yes/yes


METAR
Observation RJOS 161400Z 17010KT 9999 FEW030 BKN200 15/10 Q1018
Station Tokushima Ab
Date/Time 16 April 2019 14:00:00
Wind direction 170°
Wind speed 10 kts
Lowest cloud amount few clouds
Temperature 15°C
Dew point 10°C
Humidity 72%
QNH 1018 hPa
Weather condition n/a

Tokushima Awaodori Airport is a joint civil-military public airport in Matsushige, Tokushima, Japan, near the city of Tokushima.

Climatology

Humid Sub-tropical climate (Köppen climate classification Cfa)

Maps

Terrain

Loading map...

Airport Layout

Loading map...


Accidents & Serious Incidents at or in vicinity of RJOS

None on SKYbrary